sensor_id;sensor_type;location;lat;lon;timestamp;temperature;humidity
10247;DHT22;5168;47.854;7.944;2023-11-19T00:00:45;6.90;99.90
10247;DHT22;5168;47.854;7.944;2023-11-19T00:03:11;7.50;99.90
10247;DHT22;5168;47.854;7.944;2023-11-19T00:05:38;7.20;99.90
10247;DHT22;5168;47.854;7.944;2023-11-19T00:12:57;7.00;99.90
10247;DHT22;5168;47.854;7.944;2023-11-19T00:15:22;7.00;99.90
10247;DHT22;5168;47.854;7.944;2023-11-19T00:17:49;7.40;99.90
10247;DHT22;5168;47.854;7.944;2023-11-19T00:20:17;7.40;99.90
10247;DHT22;5168;47.854;7.944;2023-11-19T00:22:43;7.30;99.90
10247;DHT22;5168;47.854;7.944;2023-11-19T00:25:09;7.30;99.90
10247;DHT22;5168;47.854;7.944;2023-11-19T00:27:35;7.40;99.90
10247;DHT22;5168;47.854;7.944;2023-11-19T00:34:56;7.30;99.90
10247;DHT22;5168;47.854;7.944;2023-11-19T00:37:21;7.70;99.90
10247;DHT22;5168;47.854;7.944;2023-11-19T00:39:47;7.80;99.90
10247;DHT22;5168;47.854;7.944;2023-11-19T00:47:06;7.20;99.90
10247;DHT22;5168;47.854;7.944;2023-11-19T01:04:14;7.40;99.90
10247;DHT22;5168;47.854;7.944;2023-11-19T01:09:08;8.30;99.90
10247;DHT22;5168;47.854;7.944;2023-11-19T01:16:26;7.80;99.90
10247;DHT22;5168;47.854;7.944;2023-11-19T01:18:52;7.90;99.90
10247;DHT22;5168;47.854;7.944;2023-11-19T01:21:18;8.10;99.90
10247;DHT22;5168;47.854;7.944;2023-11-19T01:23:44;7.60;99.90
10247;DHT22;5168;47.854;7.944;2023-11-19T01:26:10;7.80;99.90
10247;DHT22;5168;47.854;7.944;2023-11-19T01:28:39;7.80;99.90
10247;DHT22;5168;47.854;7.944;2023-11-19T01:31:11;7.80;99.90
10247;DHT22;5168;47.854;7.944;2023-11-19T01:33:36;7.40;99.90
10247;DHT22;5168;47.854;7.944;2023-11-19T01:36:02;8.10;99.90
10247;DHT22;5168;47.854;7.944;2023-11-19T01:38:29;8.10;99.90
10247;DHT22;5168;47.854;7.944;2023-11-19T01:40:56;7.50;99.90
10247;DHT22;5168;47.854;7.944;2023-11-19T01:45:58;8.20;99.90
10247;DHT22;5168;47.854;7.944;2023-11-19T01:50:50;7.60;99.90
10247;DHT22;5168;47.854;7.944;2023-11-19T01:53:17;7.90;99.90
10247;DHT22;5168;47.854;7.944;2023-11-19T01:55:43;8.10;99.90
10247;DHT22;5168;47.854;7.944;2023-11-19T01:58:09;7.70;99.90
10247;DHT22;5168;47.854;7.944;2023-11-19T02:20:11;7.90;99.90
10247;DHT22;5168;47.854;7.944;2023-11-19T02:22:40;8.10;99.90
10247;DHT22;5168;47.854;7.944;2023-11-19T02:25:17;8.40;99.90
10247;DHT22;5168;47.854;7.944;2023-11-19T02:27:57;8.10;99.90
10247;DHT22;5168;47.854;7.944;2023-11-19T02:30:24;7.80;99.90
10247;DHT22;5168;47.854;7.944;2023-11-19T02:32:54;8.00;99.90
10247;DHT22;5168;47.854;7.944;2023-11-19T02:35:23;7.80;99.90
10247;DHT22;5168;47.854;7.944;2023-11-19T02:37:48;7.70;99.90
10247;DHT22;5168;47.854;7.944;2023-11-19T02:40:14;8.10;99.90
10247;DHT22;5168;47.854;7.944;2023-11-19T02:42:40;8.10;99.90
10247;DHT22;5168;47.854;7.944;2023-11-19T02:45:06;7.90;99.90
10247;DHT22;5168;47.854;7.944;2023-11-19T02:47:33;8.00;99.90
10247;DHT22;5168;47.854;7.944;2023-11-19T02:49:59;8.20;99.90
10247;DHT22;5168;47.854;7.944;2023-11-19T02:52:25;8.30;99.90
10247;DHT22;5168;47.854;7.944;2023-11-19T02:54:51;7.80;99.90
10247;DHT22;5168;47.854;7.944;2023-11-19T02:59:45;8.00;99.90
10247;DHT22;5168;47.854;7.944;2023-11-19T03:04:37;8.00;99.90
10247;DHT22;5168;47.854;7.944;2023-11-19T03:07:08;8.20;99.90
10247;DHT22;5168;47.854;7.944;2023-11-19T03:09:33;8.60;99.90
10247;DHT22;5168;47.854;7.944;2023-11-19T03:14:26;8.00;99.90
10247;DHT22;5168;47.854;7.944;2023-11-19T03:16:52;8.50;99.90
10247;DHT22;5168;47.854;7.944;2023-11-19T03:21:43;8.60;99.90
10247;DHT22;5168;47.854;7.944;2023-11-19T03:24:10;8.40;99.90
10247;DHT22;5168;47.854;7.944;2023-11-19T03:26:38;8.50;99.90
10247;DHT22;5168;47.854;7.944;2023-11-19T03:31:29;8.30;99.90
10247;DHT22;5168;47.854;7.944;2023-11-19T03:33:55;8.40;99.90
10247;DHT22;5168;47.854;7.944;2023-11-19T03:36:20;8.40;99.90
10247;DHT22;5168;47.854;7.944;2023-11-19T03:41:13;8.60;99.90
10247;DHT22;5168;47.854;7.944;2023-11-19T03:43:39;8.60;99.90
10247;DHT22;5168;47.854;7.944;2023-11-19T03:46:15;8.20;99.90
10247;DHT22;5168;47.854;7.944;2023-11-19T03:58:24;8.50;99.90
10247;DHT22;5168;47.854;7.944;2023-11-19T04:00:50;8.40;99.90
10247;DHT22;5168;47.854;7.944;2023-11-19T04:03:15;8.60;99.90
10247;DHT22;5168;47.854;7.944;2023-11-19T04:05:41;8.20;99.90
10247;DHT22;5168;47.854;7.944;2023-11-19T04:08:06;8.90;99.90
10247;DHT22;5168;47.854;7.944;2023-11-19T04:10:32;8.50;99.90
10247;DHT22;5168;47.854;7.944;2023-11-19T04:12:57;8.40;99.90
10247;DHT22;5168;47.854;7.944;2023-11-19T04:20:15;8.20;99.90
10247;DHT22;5168;47.854;7.944;2023-11-19T04:22:41;8.40;99.90
10247;DHT22;5168;47.854;7.944;2023-11-19T04:25:07;8.60;99.90
10247;DHT22;5168;47.854;7.944;2023-11-19T04:27:32;8.70;99.90
10247;DHT22;5168;47.854;7.944;2023-11-19T04:32:25;8.70;99.90
10247;DHT22;5168;47.854;7.944;2023-11-19T04:34:52;8.90;99.90
10247;DHT22;5168;47.854;7.944;2023-11-19T04:37:17;8.10;99.90
10247;DHT22;5168;47.854;7.944;2023-11-19T04:39:44;8.70;99.90
10247;DHT22;5168;47.854;7.944;2023-11-19T04:42:11;8.10;99.90
10247;DHT22;5168;47.854;7.944;2023-11-19T04:44:37;8.40;99.90
10247;DHT22;5168;47.854;7.944;2023-11-19T04:51:55;8.50;99.90
10247;DHT22;5168;47.854;7.944;2023-11-19T04:59:14;8.70;99.90
10247;DHT22;5168;47.854;7.944;2023-11-19T05:09:01;8.40;99.90
10247;DHT22;5168;47.854;7.944;2023-11-19T05:11:27;8.30;99.90
10247;DHT22;5168;47.854;7.944;2023-11-19T05:13:53;8.60;99.90
10247;DHT22;5168;47.854;7.944;2023-11-19T05:16:19;8.60;99.90
10247;DHT22;5168;47.854;7.944;2023-11-19T05:21:12;8.40;99.90
10247;DHT22;5168;47.854;7.944;2023-11-19T05:23:38;8.60;99.90
10247;DHT22;5168;47.854;7.944;2023-11-19T05:26:04;8.60;99.90
10247;DHT22;5168;47.854;7.944;2023-11-19T05:28:30;8.00;99.90
10247;DHT22;5168;47.854;7.944;2023-11-19T05:30:56;8.10;99.90
10247;DHT22;5168;47.854;7.944;2023-11-19T05:33:21;7.80;99.90
10247;DHT22;5168;47.854;7.944;2023-11-19T05:38:13;8.30;99.90
10247;DHT22;5168;47.854;7.944;2023-11-19T05:40:40;8.50;99.90
10247;DHT22;5168;47.854;7.944;2023-11-19T05:45:32;8.60;99.90
10247;DHT22;5168;47.854;7.944;2023-11-19T05:47:58;8.70;99.90
10247;DHT22;5168;47.854;7.944;2023-11-19T05:55:16;8.40;99.90
10247;DHT22;5168;47.854;7.944;2023-11-19T06:00:08;8.50;99.90
10247;DHT22;5168;47.854;7.944;2023-11-19T06:02:36;8.30;99.90
10247;DHT22;5168;47.854;7.944;2023-11-19T06:05:04;8.70;99.90
10247;DHT22;5168;47.854;7.944;2023-11-19T06:07:31;9.00;99.90
10247;DHT22;5168;47.854;7.944;2023-11-19T06:12:23;8.00;99.90
10247;DHT22;5168;47.854;7.944;2023-11-19T06:14:48;8.40;99.90
10247;DHT22;5168;47.854;7.944;2023-11-19T06:17:14;8.70;99.90
10247;DHT22;5168;47.854;7.944;2023-11-19T06:19:39;8.60;99.90
10247;DHT22;5168;47.854;7.944;2023-11-19T06:31:50;8.20;99.90
10247;DHT22;5168;47.854;7.944;2023-11-19T06:39:10;8.80;99.90
10247;DHT22;5168;47.854;7.944;2023-11-19T06:41:36;8.50;99.90
10247;DHT22;5168;47.854;7.944;2023-11-19T06:44:03;8.60;99.90
10247;DHT22;5168;47.854;7.944;2023-11-19T06:48:56;8.60;99.90
10247;DHT22;5168;47.854;7.944;2023-11-19T06:56:22;8.80;99.90
10247;DHT22;5168;47.854;7.944;2023-11-19T07:01:15;8.60;99.90
10247;DHT22;5168;47.854;7.944;2023-11-19T07:03:41;8.40;99.90
10247;DHT22;5168;47.854;7.944;2023-11-19T07:08:33;8.50;99.90
10247;DHT22;5168;47.854;7.944;2023-11-19T07:10:59;8.90;99.90
10247;DHT22;5168;47.854;7.944;2023-11-19T07:23:13;8.40;99.90
10247;DHT22;5168;47.854;7.944;2023-11-19T07:25:40;8.50;99.90
10247;DHT22;5168;47.854;7.944;2023-11-19T07:32:57;8.80;99.90
10247;DHT22;5168;47.854;7.944;2023-11-19T07:35:23;8.60;99.90
10247;DHT22;5168;47.854;7.944;2023-11-19T07:37:48;8.80;99.90
10247;DHT22;5168;47.854;7.944;2023-11-19T07:40:15;8.50;99.90
10247;DHT22;5168;47.854;7.944;2023-11-19T07:42:41;8.20;99.90
10247;DHT22;5168;47.854;7.944;2023-11-19T07:45:06;8.90;99.90
10247;DHT22;5168;47.854;7.944;2023-11-19T07:54:50;8.50;99.90
10247;DHT22;5168;47.854;7.944;2023-11-19T07:57:16;8.40;99.90
10247;DHT22;5168;47.854;7.944;2023-11-19T07:59:41;9.10;99.90
10247;DHT22;5168;47.854;7.944;2023-11-19T08:04:33;8.50;99.90
10247;DHT22;5168;47.854;7.944;2023-11-19T08:09:25;8.60;99.90
10247;DHT22;5168;47.854;7.944;2023-11-19T08:14:16;8.70;99.90
10247;DHT22;5168;47.854;7.944;2023-11-19T08:28:51;9.10;99.90
10247;DHT22;5168;47.854;7.944;2023-11-19T08:33:44;8.70;99.90
10247;DHT22;5168;47.854;7.944;2023-11-19T08:36:16;9.10;99.90
10247;DHT22;5168;47.854;7.944;2023-11-19T08:38:42;8.60;99.90
10247;DHT22;5168;47.854;7.944;2023-11-19T08:41:07;8.90;99.90
10247;DHT22;5168;47.854;7.944;2023-11-19T08:43:33;9.20;99.90
10247;DHT22;5168;47.854;7.944;2023-11-19T08:48:24;9.00;99.90
10247;DHT22;5168;47.854;7.944;2023-11-19T08:55:43;8.50;99.90
10247;DHT22;5168;47.854;7.944;2023-11-19T08:58:08;9.00;99.90
10247;DHT22;5168;47.854;7.944;2023-11-19T09:00:34;8.30;99.90
10247;DHT22;5168;47.854;7.944;2023-11-19T09:12:43;9.20;99.90
10247;DHT22;5168;47.854;7.944;2023-11-19T09:15:09;9.10;99.90
10247;DHT22;5168;47.854;7.944;2023-11-19T09:20:05;9.00;99.90
10247;DHT22;5168;47.854;7.944;2023-11-19T09:27:25;8.60;99.90
10247;DHT22;5168;47.854;7.944;2023-11-19T09:29:51;9.10;99.90
10247;DHT22;5168;47.854;7.944;2023-11-19T09:37:14;8.70;99.90
10247;DHT22;5168;47.854;7.944;2023-11-19T09:39:40;8.40;99.90
10247;DHT22;5168;47.854;7.944;2023-11-19T09:42:09;8.80;99.90
10247;DHT22;5168;47.854;7.944;2023-11-19T09:44:36;8.80;99.90
10247;DHT22;5168;47.854;7.944;2023-11-19T09:49:29;9.20;99.90
10247;DHT22;5168;47.854;7.944;2023-11-19T09:51:54;8.70;99.90
10247;DHT22;5168;47.854;7.944;2023-11-19T09:54:20;8.60;99.90
10247;DHT22;5168;47.854;7.944;2023-11-19T09:56:46;8.90;99.90
10247;DHT22;5168;47.854;7.944;2023-11-19T09:59:12;9.00;99.90
10247;DHT22;5168;47.854;7.944;2023-11-19T10:01:38;9.00;99.90
10247;DHT22;5168;47.854;7.944;2023-11-19T10:04:06;9.00;99.90
10247;DHT22;5168;47.854;7.944;2023-11-19T10:11:25;9.00;99.90
10247;DHT22;5168;47.854;7.944;2023-11-19T10:13:52;8.90;99.90
10247;DHT22;5168;47.854;7.944;2023-11-19T10:18:46;9.00;99.90
10247;DHT22;5168;47.854;7.944;2023-11-19T10:21:15;9.20;99.90
10247;DHT22;5168;47.854;7.944;2023-11-19T10:23:52;9.10;99.90
10247;DHT22;5168;47.854;7.944;2023-11-19T10:26:19;8.50;99.90
10247;DHT22;5168;47.854;7.944;2023-11-19T10:28:48;9.00;99.90
10247;DHT22;5168;47.854;7.944;2023-11-19T10:31:18;9.30;99.90
10247;DHT22;5168;47.854;7.944;2023-11-19T10:33:44;8.90;99.90
10247;DHT22;5168;47.854;7.944;2023-11-19T10:36:11;8.80;99.90
10247;DHT22;5168;47.854;7.944;2023-11-19T10:38:40;9.30;99.90
10247;DHT22;5168;47.854;7.944;2023-11-19T10:41:06;8.60;99.90
10247;DHT22;5168;47.854;7.944;2023-11-19T10:43:42;9.00;99.90
10247;DHT22;5168;47.854;7.944;2023-11-19T10:46:13;9.00;99.90
10247;DHT22;5168;47.854;7.944;2023-11-19T10:51:06;9.00;99.90
10247;DHT22;5168;47.854;7.944;2023-11-19T10:53:37;8.90;99.90
10247;DHT22;5168;47.854;7.944;2023-11-19T10:56:05;8.90;99.90
10247;DHT22;5168;47.854;7.944;2023-11-19T10:58:34;9.30;99.90
10247;DHT22;5168;47.854;7.944;2023-11-19T11:01:11;8.90;99.90
10247;DHT22;5168;47.854;7.944;2023-11-19T11:03:40;9.10;99.90
10247;DHT22;5168;47.854;7.944;2023-11-19T11:08:32;8.90;99.90
10247;DHT22;5168;47.854;7.944;2023-11-19T11:11:02;9.20;99.90
10247;DHT22;5168;47.854;7.944;2023-11-19T11:13:30;9.00;99.90
10247;DHT22;5168;47.854;7.944;2023-11-19T11:15:57;8.80;99.90
10247;DHT22;5168;47.854;7.944;2023-11-19T11:18:27;9.20;99.90
10247;DHT22;5168;47.854;7.944;2023-11-19T11:21:14;9.50;99.90
10247;DHT22;5168;47.854;7.944;2023-11-19T11:27:00;9.60;99.90
10247;DHT22;5168;47.854;7.944;2023-11-19T11:37:47;10.00;99.90
10247;DHT22;5168;47.854;7.944;2023-11-19T11:40:15;9.70;99.90
10247;DHT22;5168;47.854;7.944;2023-11-19T11:42:46;10.20;99.90
10247;DHT22;5168;47.854;7.944;2023-11-19T11:45:13;9.70;99.90
10247;DHT22;5168;47.854;7.944;2023-11-19T11:50:09;9.20;99.90
10247;DHT22;5168;47.854;7.944;2023-11-19T11:55:26;9.60;99.90
10247;DHT22;5168;47.854;7.944;2023-11-19T11:57:53;9.20;99.90
10247;DHT22;5168;47.854;7.944;2023-11-19T12:00:40;9.20;99.90
10247;DHT22;5168;47.854;7.944;2023-11-19T12:03:07;9.30;99.90
10247;DHT22;5168;47.854;7.944;2023-11-19T12:10:29;9.80;99.90
10247;DHT22;5168;47.854;7.944;2023-11-19T12:13:00;9.20;99.90
10247;DHT22;5168;47.854;7.944;2023-11-19T12:15:26;9.20;99.90
10247;DHT22;5168;47.854;7.944;2023-11-19T12:17:56;9.10;99.90
10247;DHT22;5168;47.854;7.944;2023-11-19T12:20:26;9.30;99.90
10247;DHT22;5168;47.854;7.944;2023-11-19T12:22:53;9.30;99.90
10247;DHT22;5168;47.854;7.944;2023-11-19T12:25:19;9.50;99.90
10247;DHT22;5168;47.854;7.944;2023-11-19T12:27:50;9.50;99.90
10247;DHT22;5168;47.854;7.944;2023-11-19T12:30:25;10.30;99.90
10247;DHT22;5168;47.854;7.944;2023-11-19T12:32:52;9.80;99.90
10247;DHT22;5168;47.854;7.944;2023-11-19T12:35:21;9.60;99.90
10247;DHT22;5168;47.854;7.944;2023-11-19T12:37:48;9.00;99.90
10247;DHT22;5168;47.854;7.944;2023-11-19T12:40:18;9.40;99.90
10247;DHT22;5168;47.854;7.944;2023-11-19T12:42:48;9.30;99.90
10247;DHT22;5168;47.854;7.944;2023-11-19T12:47:41;9.10;99.90
10247;DHT22;5168;47.854;7.944;2023-11-19T12:50:07;9.80;99.90
10247;DHT22;5168;47.854;7.944;2023-11-19T12:52:35;9.70;99.90
10247;DHT22;5168;47.854;7.944;2023-11-19T12:57:40;9.50;99.90
10247;DHT22;5168;47.854;7.944;2023-11-19T13:00:08;9.80;99.90
10247;DHT22;5168;47.854;7.944;2023-11-19T13:02:53;9.10;99.90
10247;DHT22;5168;47.854;7.944;2023-11-19T13:05:33;9.20;99.90
10247;DHT22;5168;47.854;7.944;2023-11-19T13:10:28;9.00;99.90
10247;DHT22;5168;47.854;7.944;2023-11-19T13:13:08;8.90;99.90
10247;DHT22;5168;47.854;7.944;2023-11-19T13:15:34;9.40;99.90
10247;DHT22;5168;47.854;7.944;2023-11-19T13:18:01;9.30;99.90
10247;DHT22;5168;47.854;7.944;2023-11-19T13:20:27;9.00;99.90
10247;DHT22;5168;47.854;7.944;2023-11-19T13:23:00;9.00;99.90
10247;DHT22;5168;47.854;7.944;2023-11-19T13:25:27;9.30;99.90
10247;DHT22;5168;47.854;7.944;2023-11-19T13:27:53;9.50;99.90
10247;DHT22;5168;47.854;7.944;2023-11-19T13:30:19;9.70;99.90
10247;DHT22;5168;47.854;7.944;2023-11-19T13:32:45;8.70;99.90
10247;DHT22;5168;47.854;7.944;2023-11-19T13:35:12;9.30;99.90
10247;DHT22;5168;47.854;7.944;2023-11-19T13:37:38;9.40;99.90
10247;DHT22;5168;47.854;7.944;2023-11-19T13:40:06;9.10;99.90
10247;DHT22;5168;47.854;7.944;2023-11-19T13:42:31;10.10;99.90
10247;DHT22;5168;47.854;7.944;2023-11-19T13:44:57;9.60;99.90
10247;DHT22;5168;47.854;7.944;2023-11-19T13:47:22;9.70;99.90
10247;DHT22;5168;47.854;7.944;2023-11-19T13:49:49;9.80;99.90
10247;DHT22;5168;47.854;7.944;2023-11-19T13:52:14;9.50;99.90
10247;DHT22;5168;47.854;7.944;2023-11-19T13:54:40;9.80;99.90
10247;DHT22;5168;47.854;7.944;2023-11-19T13:57:06;9.60;99.90
10247;DHT22;5168;47.854;7.944;2023-11-19T14:06:50;10.20;99.90
10247;DHT22;5168;47.854;7.944;2023-11-19T14:09:16;10.10;99.90
10247;DHT22;5168;47.854;7.944;2023-11-19T14:11:43;10.10;99.90
10247;DHT22;5168;47.854;7.944;2023-11-19T14:14:09;9.60;99.90
10247;DHT22;5168;47.854;7.944;2023-11-19T14:19:00;9.10;99.90
10247;DHT22;5168;47.854;7.944;2023-11-19T14:21:26;9.60;99.90
10247;DHT22;5168;47.854;7.944;2023-11-19T14:23:54;9.40;99.90
10247;DHT22;5168;47.854;7.944;2023-11-19T14:33:39;9.50;99.90
10247;DHT22;5168;47.854;7.944;2023-11-19T14:36:04;8.90;99.90
10247;DHT22;5168;47.854;7.944;2023-11-19T14:38:32;8.60;99.90
10247;DHT22;5168;47.854;7.944;2023-11-19T14:40:58;8.60;99.90
10247;DHT22;5168;47.854;7.944;2023-11-19T14:43:25;9.30;99.90
10247;DHT22;5168;47.854;7.944;2023-11-19T15:00:31;8.60;99.90
10247;DHT22;5168;47.854;7.944;2023-11-19T15:02:56;9.00;99.90
10247;DHT22;5168;47.854;7.944;2023-11-19T15:07:48;8.20;99.90
10247;DHT22;5168;47.854;7.944;2023-11-19T15:10:14;8.60;99.90
10247;DHT22;5168;47.854;7.944;2023-11-19T15:12:39;8.30;99.90
10247;DHT22;5168;47.854;7.944;2023-11-19T15:15:08;8.40;99.90
10247;DHT22;5168;47.854;7.944;2023-11-19T15:17:34;8.60;99.90
10247;DHT22;5168;47.854;7.944;2023-11-19T15:29:45;8.20;99.90
10247;DHT22;5168;47.854;7.944;2023-11-19T15:32:10;8.30;99.90
10247;DHT22;5168;47.854;7.944;2023-11-19T15:34:36;8.30;99.90
10247;DHT22;5168;47.854;7.944;2023-11-19T15:37:03;8.20;99.90
10247;DHT22;5168;47.854;7.944;2023-11-19T15:39:29;8.40;99.90
10247;DHT22;5168;47.854;7.944;2023-11-19T15:41:55;8.00;99.90
10247;DHT22;5168;47.854;7.944;2023-11-19T15:44:23;8.00;99.90
10247;DHT22;5168;47.854;7.944;2023-11-19T15:46:49;8.30;99.90
10247;DHT22;5168;47.854;7.944;2023-11-19T15:49:15;8.20;99.90
10247;DHT22;5168;47.854;7.944;2023-11-19T15:51:41;8.00;99.90
10247;DHT22;5168;47.854;7.944;2023-11-19T15:54:07;8.20;99.90
10247;DHT22;5168;47.854;7.944;2023-11-19T16:03:52;8.10;99.90
10247;DHT22;5168;47.854;7.944;2023-11-19T16:06:18;8.00;99.90
10247;DHT22;5168;47.854;7.944;2023-11-19T16:08:43;8.20;99.90
10247;DHT22;5168;47.854;7.944;2023-11-19T16:11:09;7.90;99.90
10247;DHT22;5168;47.854;7.944;2023-11-19T16:20:54;8.10;99.90
10247;DHT22;5168;47.854;7.944;2023-11-19T16:23:20;8.00;99.90
10247;DHT22;5168;47.854;7.944;2023-11-19T16:30:39;8.10;99.90
10247;DHT22;5168;47.854;7.944;2023-11-19T16:50:11;8.00;99.90
10247;DHT22;5168;47.854;7.944;2023-11-19T16:52:42;7.50;99.90
10247;DHT22;5168;47.854;7.944;2023-11-19T16:57:39;7.50;99.90
10247;DHT22;5168;47.854;7.944;2023-11-19T17:00:06;8.20;99.90
10247;DHT22;5168;47.854;7.944;2023-11-19T17:09:51;8.10;99.90
10247;DHT22;5168;47.854;7.944;2023-11-19T17:12:17;8.30;99.90
10247;DHT22;5168;47.854;7.944;2023-11-19T17:19:35;8.10;99.90
10247;DHT22;5168;47.854;7.944;2023-11-19T17:36:36;7.90;99.90
10247;DHT22;5168;47.854;7.944;2023-11-19T17:39:02;7.80;99.90
10247;DHT22;5168;47.854;7.944;2023-11-19T17:41:30;8.20;99.90
10247;DHT22;5168;47.854;7.944;2023-11-19T17:43:55;8.20;99.90
10247;DHT22;5168;47.854;7.944;2023-11-19T17:53:42;8.20;99.90
10247;DHT22;5168;47.854;7.944;2023-11-19T18:01:02;7.90;99.90
10247;DHT22;5168;47.854;7.944;2023-11-19T18:03:28;7.90;99.90
10247;DHT22;5168;47.854;7.944;2023-11-19T18:08:19;7.80;99.90
10247;DHT22;5168;47.854;7.944;2023-11-19T18:10:48;7.90;99.90
10247;DHT22;5168;47.854;7.944;2023-11-19T18:13:13;7.80;99.90
10247;DHT22;5168;47.854;7.944;2023-11-19T18:15:39;7.70;99.90
10247;DHT22;5168;47.854;7.944;2023-11-19T18:20:30;7.70;99.90
10247;DHT22;5168;47.854;7.944;2023-11-19T18:25:23;7.80;99.90
10247;DHT22;5168;47.854;7.944;2023-11-19T18:27:49;7.90;99.90
10247;DHT22;5168;47.854;7.944;2023-11-19T18:35:08;8.00;99.90
10247;DHT22;5168;47.854;7.944;2023-11-19T18:37:39;7.80;99.90
10247;DHT22;5168;47.854;7.944;2023-11-19T18:40:06;7.90;99.90
10247;DHT22;5168;47.854;7.944;2023-11-19T18:42:34;7.80;99.90
10247;DHT22;5168;47.854;7.944;2023-11-19T18:47:26;7.80;99.90
10247;DHT22;5168;47.854;7.944;2023-11-19T18:57:09;8.10;99.90
10247;DHT22;5168;47.854;7.944;2023-11-19T18:59:35;7.90;99.90
10247;DHT22;5168;47.854;7.944;2023-11-19T19:02:00;8.20;99.90
10247;DHT22;5168;47.854;7.944;2023-11-19T19:06:54;8.10;99.90
10247;DHT22;5168;47.854;7.944;2023-11-19T19:09:19;8.30;99.90
10247;DHT22;5168;47.854;7.944;2023-11-19T19:11:45;8.10;99.90
10247;DHT22;5168;47.854;7.944;2023-11-19T19:14:13;8.30;99.90
10247;DHT22;5168;47.854;7.944;2023-11-19T19:16:39;8.20;99.90
10247;DHT22;5168;47.854;7.944;2023-11-19T19:23:57;8.70;99.90
10247;DHT22;5168;47.854;7.944;2023-11-19T19:26:28;8.40;99.90
10247;DHT22;5168;47.854;7.944;2023-11-19T19:31:21;8.30;99.90
10247;DHT22;5168;47.854;7.944;2023-11-19T19:33:47;8.10;99.90
10247;DHT22;5168;47.854;7.944;2023-11-19T19:36:18;8.20;99.90
10247;DHT22;5168;47.854;7.944;2023-11-19T19:41:09;8.10;99.90
10247;DHT22;5168;47.854;7.944;2023-11-19T19:43:35;8.10;99.90
10247;DHT22;5168;47.854;7.944;2023-11-19T19:46:01;8.10;99.90
10247;DHT22;5168;47.854;7.944;2023-11-19T19:48:27;8.20;99.90
10247;DHT22;5168;47.854;7.944;2023-11-19T19:50:53;8.10;99.90
10247;DHT22;5168;47.854;7.944;2023-11-19T19:53:18;8.10;99.90
10247;DHT22;5168;47.854;7.944;2023-11-19T19:58:10;8.20;99.90
10247;DHT22;5168;47.854;7.944;2023-11-19T20:00:37;8.00;99.90
10247;DHT22;5168;47.854;7.944;2023-11-19T20:05:28;8.10;99.90
10247;DHT22;5168;47.854;7.944;2023-11-19T20:07:54;8.00;99.90
10247;DHT22;5168;47.854;7.944;2023-11-19T20:12:49;8.00;99.90
10247;DHT22;5168;47.854;7.944;2023-11-19T20:15:14;8.20;99.90
10247;DHT22;5168;47.854;7.944;2023-11-19T20:17:43;8.10;99.90
10247;DHT22;5168;47.854;7.944;2023-11-19T20:20:09;8.30;99.90
10247;DHT22;5168;47.854;7.944;2023-11-19T20:22:36;8.90;99.90
10247;DHT22;5168;47.854;7.944;2023-11-19T20:25:02;8.00;99.90
10247;DHT22;5168;47.854;7.944;2023-11-19T20:27:28;8.00;99.90
10247;DHT22;5168;47.854;7.944;2023-11-19T20:32:20;8.70;99.90
10247;DHT22;5168;47.854;7.944;2023-11-19T20:39:38;8.20;99.90
10247;DHT22;5168;47.854;7.944;2023-11-19T20:44:29;8.10;99.90
10247;DHT22;5168;47.854;7.944;2023-11-19T20:46:55;7.40;99.90
10247;DHT22;5168;47.854;7.944;2023-11-19T20:49:21;8.00;99.90
10247;DHT22;5168;47.854;7.944;2023-11-19T20:51:49;8.10;99.90
10247;DHT22;5168;47.854;7.944;2023-11-19T20:54:15;7.90;99.90
10247;DHT22;5168;47.854;7.944;2023-11-19T20:59:07;8.00;99.90
10247;DHT22;5168;47.854;7.944;2023-11-19T21:11:17;7.90;99.90
10247;DHT22;5168;47.854;7.944;2023-11-19T21:16:09;7.80;99.90
10247;DHT22;5168;47.854;7.944;2023-11-19T21:18:35;8.00;99.90
10247;DHT22;5168;47.854;7.944;2023-11-19T21:25:58;7.80;99.90
10247;DHT22;5168;47.854;7.944;2023-11-19T21:28:27;7.70;99.90
10247;DHT22;5168;47.854;7.944;2023-11-19T21:30:56;7.70;99.90
10247;DHT22;5168;47.854;7.944;2023-11-19T21:33:25;7.70;99.90
10247;DHT22;5168;47.854;7.944;2023-11-19T21:35:54;7.80;99.90
10247;DHT22;5168;47.854;7.944;2023-11-19T21:40:50;8.00;99.90
10247;DHT22;5168;47.854;7.944;2023-11-19T21:43:19;7.90;99.90
10247;DHT22;5168;47.854;7.944;2023-11-19T21:45:45;7.90;99.90
10247;DHT22;5168;47.854;7.944;2023-11-19T21:48:11;7.90;99.90
10247;DHT22;5168;47.854;7.944;2023-11-19T21:53:03;8.00;99.90
10247;DHT22;5168;47.854;7.944;2023-11-19T21:57:56;7.80;99.90
10247;DHT22;5168;47.854;7.944;2023-11-19T22:00:22;7.80;99.90
10247;DHT22;5168;47.854;7.944;2023-11-19T22:02:48;7.50;99.90
10247;DHT22;5168;47.854;7.944;2023-11-19T22:05:15;7.60;99.90
10247;DHT22;5168;47.854;7.944;2023-11-19T22:07:43;7.60;99.90
10247;DHT22;5168;47.854;7.944;2023-11-19T22:10:09;7.60;99.90
10247;DHT22;5168;47.854;7.944;2023-11-19T22:12:35;7.60;99.90
10247;DHT22;5168;47.854;7.944;2023-11-19T22:15:00;7.30;99.90
10247;DHT22;5168;47.854;7.944;2023-11-19T22:29:36;7.70;99.90
10247;DHT22;5168;47.854;7.944;2023-11-19T22:34:28;7.70;99.90
10247;DHT22;5168;47.854;7.944;2023-11-19T22:36:54;7.60;99.90
10247;DHT22;5168;47.854;7.944;2023-11-19T22:39:20;7.80;99.90
10247;DHT22;5168;47.854;7.944;2023-11-19T22:41:46;7.80;99.90
10247;DHT22;5168;47.854;7.944;2023-11-19T22:46:37;7.80;99.90
10247;DHT22;5168;47.854;7.944;2023-11-19T22:49:03;7.70;99.90
10247;DHT22;5168;47.854;7.944;2023-11-19T22:56:22;7.50;99.90
10247;DHT22;5168;47.854;7.944;2023-11-19T23:01:19;7.60;99.90
10247;DHT22;5168;47.854;7.944;2023-11-19T23:03:45;7.30;99.90
10247;DHT22;5168;47.854;7.944;2023-11-19T23:06:12;7.50;99.90
10247;DHT22;5168;47.854;7.944;2023-11-19T23:08:37;7.60;99.90
10247;DHT22;5168;47.854;7.944;2023-11-19T23:11:04;8.70;99.90
10247;DHT22;5168;47.854;7.944;2023-11-19T23:13:30;7.60;99.90
10247;DHT22;5168;47.854;7.944;2023-11-19T23:18:26;8.30;99.90
10247;DHT22;5168;47.854;7.944;2023-11-19T23:20:52;8.20;99.90
10247;DHT22;5168;47.854;7.944;2023-11-19T23:23:17;7.60;99.90
10247;DHT22;5168;47.854;7.944;2023-11-19T23:25:44;7.30;99.90
10247;DHT22;5168;47.854;7.944;2023-11-19T23:28:09;7.60;99.90
10247;DHT22;5168;47.854;7.944;2023-11-19T23:33:01;7.70;99.90
10247;DHT22;5168;47.854;7.944;2023-11-19T23:42:45;7.60;99.90
10247;DHT22;5168;47.854;7.944;2023-11-19T23:45:13;7.50;99.90
10247;DHT22;5168;47.854;7.944;2023-11-19T23:47:39;7.50;99.90
10247;DHT22;5168;47.854;7.944;2023-11-19T23:50:05;7.50;99.90
